createdAt,value
2018-12-03T00:00:18.934Z,12.57
2018-12-03T00:01:18.924Z,12.54
2018-12-03T00:02:18.911Z,12.49
2018-12-03T00:03:18.901Z,12.56
2018-12-03T00:04:19.313Z,12.51
2018-12-03T00:05:19.012Z,12.45
2018-12-03T00:06:18.869Z,12.45
2018-12-03T00:07:18.861Z,12.46
2018-12-03T00:08:18.850Z,12.48
2018-12-03T00:09:18.836Z,12.39
2018-12-03T00:10:18.827Z,12.39
2018-12-03T00:11:19.378Z,12.34
2018-12-03T00:12:18.804Z,12.37
2018-12-03T00:13:18.793Z,12.38
2018-12-03T00:14:18.785Z,12.39
2018-12-03T00:15:18.775Z,12.34
2018-12-03T00:16:18.762Z,12.34
2018-12-03T00:17:19.126Z,12.39
2018-12-03T00:18:19.153Z,12.38
2018-12-03T00:19:18.731Z,12.39
2018-12-03T00:20:18.719Z,12.42
2018-12-03T00:21:18.711Z,12.37
2018-12-03T00:22:18.701Z,12.38
2018-12-03T00:23:18.816Z,12.41
2018-12-03T00:24:18.676Z,12.37
2018-12-03T00:25:18.988Z,12.37
2018-12-03T00:26:18.655Z,12.31
2018-12-03T00:27:18.662Z,12.31
2018-12-03T00:28:18.632Z,12.38
2018-12-03T00:29:18.751Z,12.38
2018-12-03T00:30:18.609Z,12.38
2018-12-03T00:31:18.598Z,12.41
2018-12-03T00:32:19.010Z,12.37
2018-12-03T00:33:18.580Z,12.37
2018-12-03T00:34:18.567Z,12.39
2018-12-03T00:35:18.954Z,12.39
2018-12-03T00:36:18.546Z,12.42
2018-12-03T00:37:18.537Z,12.37
2018-12-03T00:38:18.522Z,12.33
2018-12-03T00:39:19.025Z,12.30
2018-12-03T00:40:18.508Z,12.33
2018-12-03T00:41:18.623Z,12.33
2018-12-03T00:42:18.479Z,12.34
2018-12-03T00:43:18.472Z,12.38
2018-12-03T00:44:18.459Z,12.37
2018-12-03T00:45:18.448Z,12.33
2018-12-03T00:46:18.825Z,12.37
2018-12-03T00:47:18.557Z,12.39
2018-12-03T00:48:18.415Z,12.39
2018-12-03T00:49:18.404Z,12.37
2018-12-03T00:50:18.404Z,12.38
2018-12-03T00:51:18.384Z,12.38
2018-12-03T00:52:18.373Z,12.37
2018-12-03T00:53:20.111Z,12.33
2018-12-03T00:54:18.350Z,12.41
2018-12-03T00:55:18.340Z,12.34
2018-12-03T00:56:18.330Z,12.33
2018-12-03T00:57:18.320Z,12.41
2018-12-03T00:58:18.313Z,12.38
2018-12-03T00:59:18.427Z,12.38
2018-12-03T01:00:18.665Z,12.27
2018-12-03T01:01:18.278Z,12.31
2018-12-03T01:02:18.265Z,12.31
2018-12-03T01:03:18.265Z,12.31
2018-12-03T01:04:18.243Z,12.29
2018-12-03T01:05:18.367Z,12.29
2018-12-03T01:06:18.221Z,12.31
2018-12-03T01:07:18.684Z,12.31
2018-12-03T01:08:18.201Z,12.33
2018-12-03T01:09:18.193Z,12.39
2018-12-03T01:10:18.180Z,12.34
2018-12-03T01:11:18.486Z,12.34
2018-12-03T01:12:18.158Z,12.26
2018-12-03T01:13:18.148Z,12.30
2018-12-03T01:14:18.602Z,12.38
2018-12-03T01:15:18.126Z,12.30
2018-12-03T01:16:18.119Z,12.31
2018-12-03T01:17:18.291Z,12.29
2018-12-03T01:18:18.095Z,12.26
2018-12-03T01:19:18.085Z,12.33
2018-12-03T01:20:18.073Z,12.37
2018-12-03T01:21:18.436Z,12.38
2018-12-03T01:22:18.054Z,12.38
2018-12-03T01:23:18.166Z,12.37
2018-12-03T01:24:18.035Z,12.33
2018-12-03T01:25:18.024Z,12.42
2018-12-03T01:26:18.009Z,12.38
2018-12-03T01:27:17.999Z,12.42
2018-12-03T01:28:18.456Z,12.39
2018-12-03T01:29:18.122Z,12.38
2018-12-03T01:30:17.966Z,12.42
2018-12-03T01:31:17.956Z,12.39
2018-12-03T01:32:17.945Z,12.44
2018-12-03T01:33:17.934Z,12.45
2018-12-03T01:34:17.923Z,12.46
2018-12-03T01:35:18.289Z,12.46
2018-12-03T01:36:17.909Z,12.48
2018-12-03T01:37:17.890Z,12.48
2018-12-03T01:38:17.881Z,12.51
2018-12-03T01:39:18.388Z,12.51
2018-12-03T01:40:17.859Z,12.52
2018-12-03T01:41:17.926Z,12.48
2018-12-03T01:42:18.278Z,12.46
2018-12-03T01:43:17.825Z,12.49
2018-12-03T01:44:17.814Z,12.49
2018-12-03T01:45:17.804Z,12.46
2018-12-03T01:46:17.794Z,12.48
2018-12-03T01:47:17.869Z,12.48
2018-12-03T01:48:17.773Z,12.54
2018-12-03T01:49:18.094Z,12.52
2018-12-03T01:50:17.753Z,12.54
2018-12-03T01:51:17.739Z,12.54
2018-12-03T01:52:17.728Z,12.48
2018-12-03T01:53:17.790Z,12.51
2018-12-03T01:54:17.706Z,12.49
2018-12-03T01:55:17.695Z,12.48
2018-12-03T01:56:18.117Z,12.59
2018-12-03T01:57:17.674Z,12.49
2018-12-03T01:58:17.662Z,12.54
2018-12-03T01:59:17.723Z,12.54
2018-12-03T02:00:17.644Z,12.56
2018-12-03T02:01:17.631Z,12.56
2018-12-03T02:02:17.654Z,12.52
2018-12-03T02:03:17.933Z,12.64
2018-12-03T02:04:17.598Z,12.60
2018-12-03T02:05:17.670Z,12.56
2018-12-03T02:06:17.576Z,12.56
2018-12-03T02:07:17.565Z,12.63
2018-12-03T02:08:17.555Z,12.59
2018-12-03T02:09:17.543Z,12.60
2018-12-03T02:10:17.957Z,12.62
2018-12-03T02:11:17.595Z,12.57
2018-12-03T02:12:17.510Z,12.60
2018-12-03T02:13:17.502Z,12.57
2018-12-03T02:14:17.489Z,12.56
2018-12-03T02:15:17.488Z,12.57
2018-12-03T02:16:17.944Z,12.57
2018-12-03T02:17:17.524Z,12.59
2018-12-03T02:18:17.449Z,12.62
2018-12-03T02:19:17.434Z,12.59
2018-12-03T02:20:17.425Z,12.60
2018-12-03T02:21:17.413Z,12.59
2018-12-03T02:22:17.733Z,12.57
2018-12-03T02:23:17.749Z,12.62
2018-12-03T02:24:17.380Z,12.64
2018-12-03T02:25:17.378Z,12.57
2018-12-03T02:26:17.358Z,12.63
2018-12-03T02:27:17.350Z,12.63
2018-12-03T02:28:17.337Z,12.64
2018-12-03T02:29:17.394Z,12.63
2018-12-03T02:30:17.315Z,12.63
2018-12-03T02:31:17.308Z,12.57
2018-12-03T02:32:17.294Z,12.57
2018-12-03T02:33:17.286Z,12.59
2018-12-03T02:34:17.715Z,12.63
2018-12-03T02:35:17.342Z,12.62
2018-12-03T02:36:17.252Z,12.69
2018-12-03T02:37:17.243Z,12.70
2018-12-03T02:38:17.250Z,12.66
2018-12-03T02:39:17.219Z,12.64
2018-12-03T02:40:17.207Z,12.59
2018-12-03T02:41:17.775Z,12.63
2018-12-03T02:42:17.189Z,12.57
2018-12-03T02:43:17.176Z,12.56
2018-12-03T02:44:17.165Z,12.63
2018-12-03T02:45:17.155Z,12.57
2018-12-03T02:46:17.145Z,12.62
2018-12-03T02:47:17.203Z,12.60
2018-12-03T02:48:18.591Z,12.62
2018-12-03T02:49:17.111Z,12.59
2018-12-03T02:50:17.101Z,12.60
2018-12-03T02:51:17.089Z,12.60
2018-12-03T02:52:17.079Z,12.54
2018-12-03T02:53:17.141Z,12.57
2018-12-03T02:54:17.058Z,12.59
2018-12-03T02:55:17.377Z,12.54
2018-12-03T02:56:23.919Z,12.54
2018-12-03T02:57:17.029Z,12.57
2018-12-03T02:58:17.024Z,12.57
2018-12-03T02:59:17.100Z,12.57
2018-12-03T03:01:32.934Z,12.56
2018-12-03T03:02:32.629Z,12.56
2018-12-03T03:03:32.619Z,12.56
2018-12-03T03:04:32.679Z,12.52
2018-12-03T03:05:32.596Z,12.56
2018-12-03T03:06:32.586Z,12.54
2018-12-03T03:07:32.863Z,12.56
2018-12-03T03:08:32.565Z,12.49
2018-12-03T03:09:32.556Z,12.49
2018-12-03T03:10:32.612Z,12.46
2018-12-03T03:11:32.552Z,12.41
2018-12-03T03:12:32.525Z,12.38
2018-12-03T03:13:33.016Z,12.39
2018-12-03T03:14:32.539Z,12.39
2018-12-03T03:15:32.555Z,12.34
2018-12-03T03:16:32.787Z,12.30
2018-12-03T03:17:32.486Z,12.27
2018-12-03T03:18:32.463Z,12.29
2018-12-03T03:19:32.451Z,12.37
2018-12-03T03:20:32.725Z,12.31
2018-12-03T03:21:32.428Z,12.33
2018-12-03T03:22:32.486Z,12.24
2018-12-03T03:23:32.404Z,12.27
2018-12-03T03:24:32.393Z,12.16
2018-12-03T03:25:32.383Z,12.20
2018-12-03T03:26:32.374Z,12.21
2018-12-03T03:27:32.752Z,12.20
2018-12-03T03:28:32.424Z,12.24
2018-12-03T03:29:32.339Z,12.20
2018-12-03T03:30:32.330Z,12.21
2018-12-03T03:31:32.390Z,12.23
2018-12-03T03:32:32.309Z,12.26
2018-12-03T03:33:32.298Z,12.21
2018-12-03T03:34:32.814Z,12.08
2018-12-03T03:35:32.278Z,12.09
2018-12-03T03:36:32.262Z,12.20
2018-12-03T03:37:32.254Z,12.19
2018-12-03T03:38:32.242Z,12.21
2018-12-03T03:39:32.231Z,12.04
2018-12-03T03:40:32.293Z,12.09
2018-12-03T03:41:32.599Z,12.06
2018-12-03T03:42:32.201Z,12.08
2018-12-03T03:43:32.188Z,12.09
2018-12-03T03:44:32.181Z,12.06
2018-12-03T03:45:32.165Z,12.04
2018-12-03T03:46:32.228Z,12.16
2018-12-03T03:47:32.145Z,12.20
2018-12-03T03:48:32.624Z,12.21
2018-12-03T03:49:32.123Z,12.20
2018-12-03T03:50:32.114Z,12.23
2018-12-03T03:51:32.101Z,12.24
2018-12-03T03:52:32.186Z,12.20
2018-12-03T03:53:32.079Z,12.20
2018-12-03T03:54:32.068Z,12.21
2018-12-03T03:55:32.442Z,12.39
2018-12-03T03:56:32.899Z,12.27
2018-12-03T03:57:32.898Z,12.30
2018-12-03T03:58:32.097Z,12.38
2018-12-03T03:59:32.014Z,12.31
2018-12-03T04:00:32.003Z,12.38
2018-12-03T04:01:31.993Z,12.37
2018-12-03T04:02:32.364Z,12.29
2018-12-03T04:03:31.971Z,12.31
2018-12-03T04:04:32.031Z,12.30
2018-12-03T04:05:31.954Z,12.37
2018-12-03T04:06:31.935Z,12.34
2018-12-03T04:07:32.928Z,12.30
2018-12-03T04:08:31.918Z,12.31
2018-12-03T04:09:32.386Z,12.37
2018-12-03T04:10:31.984Z,12.38
2018-12-03T04:11:31.885Z,12.31
2018-12-03T04:12:31.874Z,12.31
2018-12-03T04:13:31.862Z,12.37
2018-12-03T04:14:31.851Z,12.30
2018-12-03T04:15:31.841Z,12.31
2018-12-03T04:16:32.245Z,12.34
2018-12-03T04:17:31.821Z,12.27
2018-12-03T04:18:31.808Z,12.33
2018-12-03T04:19:31.801Z,12.29
2018-12-03T04:20:31.789Z,12.21
2018-12-03T04:21:31.779Z,12.21
2018-12-03T04:22:31.846Z,12.29
2018-12-03T04:23:32.237Z,12.33
2018-12-03T04:24:31.744Z,12.24
2018-12-03T04:25:31.733Z,12.31
2018-12-03T04:26:31.721Z,12.19
2018-12-03T04:27:31.714Z,12.33
2018-12-03T04:28:31.795Z,12.21
2018-12-03T04:29:31.690Z,12.27
2018-12-03T04:30:31.679Z,12.26
2018-12-03T04:31:31.670Z,12.27
2018-12-03T04:32:31.659Z,12.31
2018-12-03T04:33:31.684Z,12.34
2018-12-03T04:34:31.709Z,12.34
2018-12-03T04:35:31.634Z,12.37
2018-12-03T04:36:32.044Z,12.42
2018-12-03T04:37:31.603Z,12.39
2018-12-03T04:38:31.595Z,12.33
2018-12-03T04:39:31.582Z,12.38
2018-12-03T04:40:31.646Z,12.39
2018-12-03T04:41:31.560Z,12.37
2018-12-03T04:42:31.550Z,12.42
2018-12-03T04:43:31.865Z,12.42
2018-12-03T04:44:31.529Z,12.42
2018-12-03T04:45:31.519Z,12.45
2018-12-03T04:46:31.674Z,12.48
2018-12-03T04:47:31.531Z,12.46
2018-12-03T04:48:31.512Z,12.56
2018-12-03T04:49:31.540Z,12.60
2018-12-03T04:50:31.924Z,12.60
2018-12-03T04:51:31.471Z,12.59
2018-12-03T04:52:31.511Z,12.66
2018-12-03T04:53:31.455Z,12.66
2018-12-03T04:54:31.420Z,12.66
2018-12-03T04:55:31.409Z,12.63
2018-12-03T04:56:31.398Z,12.66
2018-12-03T04:57:31.810Z,12.70
2018-12-03T04:58:31.449Z,12.66
2018-12-03T04:59:31.372Z,12.67
2018-12-03T05:00:31.357Z,12.71
2018-12-03T05:01:31.344Z,12.78
2018-12-03T05:02:31.336Z,12.78
2018-12-03T05:03:31.324Z,12.75
2018-12-03T05:04:32.080Z,12.67
2018-12-03T05:05:31.301Z,12.67
2018-12-03T05:06:31.290Z,12.74
2018-12-03T05:07:31.280Z,12.70
2018-12-03T05:08:31.268Z,12.74
2018-12-03T05:09:31.261Z,12.75
2018-12-03T05:10:31.368Z,12.82
2018-12-03T05:11:31.655Z,12.85
2018-12-03T05:12:31.224Z,12.79
2018-12-03T05:13:31.214Z,12.81
2018-12-03T05:14:31.203Z,12.78
2018-12-03T05:15:31.194Z,12.82
2018-12-03T05:16:31.315Z,12.79
2018-12-03T05:17:31.171Z,12.81
2018-12-03T05:18:31.491Z,12.84
2018-12-03T05:19:31.155Z,12.77
2018-12-03T05:20:31.169Z,12.71
2018-12-03T05:21:31.128Z,12.74
2018-12-03T05:22:31.803Z,12.59
2018-12-03T05:23:33.890Z,12.66
2018-12-03T05:24:31.099Z,12.64
2018-12-03T05:25:31.087Z,12.64
2018-12-03T05:26:31.077Z,12.57
2018-12-03T05:27:31.063Z,12.57
2018-12-03T05:28:31.127Z,12.54
2018-12-03T05:29:31.045Z,12.45
2018-12-03T05:30:31.033Z,12.42
2018-12-03T05:31:31.020Z,12.46
2018-12-03T05:32:31.009Z,12.39
2018-12-03T05:33:30.999Z,12.42
2018-12-03T05:34:31.211Z,12.33
2018-12-03T05:35:30.976Z,12.30
2018-12-03T05:36:36.345Z,12.44
2018-12-03T05:37:30.955Z,12.31
2018-12-03T05:38:30.945Z,12.29
2018-12-03T05:39:30.934Z,12.29
2018-12-03T05:40:31.266Z,12.26
2018-12-03T05:41:30.912Z,12.29
2018-12-03T05:42:30.901Z,12.24
2018-12-03T05:43:31.242Z,12.24
2018-12-03T05:44:30.879Z,12.09
2018-12-03T05:45:30.878Z,12.19
2018-12-03T05:46:30.933Z,12.21
2018-12-03T05:47:30.852Z,12.09
2018-12-03T05:48:30.838Z,12.20
2018-12-03T05:49:30.826Z,12.20
2018-12-03T05:50:30.816Z,12.20
2018-12-03T05:51:30.805Z,12.23
2018-12-03T05:52:30.869Z,12.19
2018-12-03T05:53:30.783Z,12.06
2018-12-03T05:54:30.773Z,12.08
2018-12-03T05:55:31.224Z,12.12
2018-12-03T05:56:30.750Z,12.11
2018-12-03T05:57:30.741Z,12.09
2018-12-03T05:58:30.829Z,12.09
2018-12-03T05:59:30.854Z,12.12
2018-12-03T06:00:30.707Z,12.06
2018-12-03T06:01:30.891Z,12.01
2018-12-03T06:02:31.110Z,12.09
2018-12-03T06:03:30.813Z,12.13
2018-12-03T06:04:31.055Z,12.09
2018-12-03T06:05:31.874Z,12.13
2018-12-03T06:06:30.762Z,12.04
2018-12-03T06:07:30.702Z,11.97
2018-12-03T06:08:30.621Z,12.08
2018-12-03T06:09:31.057Z,12.01
2018-12-03T06:10:30.637Z,12.02
2018-12-03T06:11:30.590Z,12.01
2018-12-03T06:12:30.578Z,12.05
2018-12-03T06:13:30.575Z,12.04
2018-12-03T06:14:30.557Z,12.08
2018-12-03T06:15:30.545Z,12.06
2018-12-03T06:16:30.595Z,12.04
2018-12-03T06:17:30.525Z,11.99
2018-12-03T06:18:30.512Z,11.93
2018-12-03T06:19:30.505Z,11.96
2018-12-03T06:20:30.493Z,11.94
2018-12-03T06:21:30.482Z,11.99
2018-12-03T06:22:30.903Z,11.93
2018-12-03T06:23:30.460Z,11.90
2018-12-03T06:24:30.522Z,11.96
2018-12-03T06:25:30.441Z,11.97
2018-12-03T06:26:30.642Z,12.04
2018-12-03T06:27:30.498Z,11.94
2018-12-03T06:28:30.737Z,11.89
2018-12-03T06:29:30.778Z,11.99
2018-12-03T06:30:30.387Z,12.02
2018-12-03T06:31:30.371Z,12.06
2018-12-03T06:32:30.360Z,12.11
2018-12-03T06:33:30.351Z,12.11
2018-12-03T06:34:30.428Z,12.19
2018-12-03T06:35:30.332Z,12.21
2018-12-03T06:36:30.794Z,12.20
2018-12-03T06:37:30.308Z,12.21
2018-12-03T06:38:30.296Z,12.24
2018-12-03T06:39:30.285Z,12.20
2018-12-03T06:40:30.335Z,12.16
2018-12-03T06:41:30.289Z,12.23
2018-12-03T06:42:30.254Z,12.19
2018-12-03T06:43:30.691Z,12.19
2018-12-03T06:44:30.425Z,12.23
2018-12-03T06:45:30.224Z,12.21
2018-12-03T06:46:30.252Z,12.19
2018-12-03T06:47:30.199Z,12.21
2018-12-03T06:48:30.272Z,12.15
2018-12-03T06:49:30.177Z,12.11
2018-12-03T06:50:30.625Z,12.06
2018-12-03T06:51:30.155Z,12.08
2018-12-03T06:52:30.442Z,12.08
2018-12-03T06:53:30.134Z,12.08
2018-12-03T06:54:30.123Z,12.04
2018-12-03T06:55:30.136Z,11.99
2018-12-03T06:56:30.127Z,12.04
2018-12-03T06:57:30.581Z,11.96
2018-12-03T06:58:30.290Z,12.01
2018-12-03T06:59:30.177Z,11.97
2018-12-03T07:00:30.182Z,11.89
2018-12-03T07:01:30.166Z,11.93
2018-12-03T07:02:30.121Z,11.89
2018-12-03T07:03:30.130Z,11.87
2018-12-03T07:04:30.499Z,11.87
2018-12-03T07:05:30.004Z,11.89
2018-12-03T07:06:30.009Z,11.93
2018-12-03T07:07:30.124Z,11.93
2018-12-03T07:08:30.179Z,11.93
2018-12-03T07:09:30.059Z,11.89
2018-12-03T07:10:30.325Z,11.89
2018-12-03T07:11:31.413Z,11.89
2018-12-03T07:12:30.178Z,11.87
2018-12-03T07:13:30.018Z,11.97
2018-12-03T07:14:29.907Z,11.96
2018-12-03T07:15:29.896Z,11.93
2018-12-03T07:16:30.039Z,11.94
2018-12-03T07:17:29.874Z,11.99
2018-12-03T07:18:30.305Z,12.02
2018-12-03T07:19:29.855Z,11.99
2018-12-03T07:20:29.843Z,11.93
2018-12-03T07:21:29.831Z,11.86
2018-12-03T07:22:29.861Z,11.86
2018-12-03T07:23:29.811Z,11.87
2018-12-03T07:24:29.817Z,11.83
2018-12-03T07:25:30.114Z,11.78
2018-12-03T07:26:29.836Z,11.86
2018-12-03T07:27:29.778Z,11.83
2018-12-03T07:28:29.827Z,11.83
2018-12-03T07:29:29.745Z,11.82
2018-12-03T07:30:29.736Z,11.86
2018-12-03T07:31:29.723Z,11.82
2018-12-03T07:32:30.130Z,11.80
2018-12-03T07:33:29.703Z,11.74
2018-12-03T07:34:29.735Z,11.64
2018-12-03T07:35:29.682Z,11.65
2018-12-03T07:36:29.671Z,11.67
2018-12-03T07:37:29.833Z,11.67
2018-12-03T07:38:29.684Z,11.67
2018-12-03T07:39:29.639Z,11.61
2018-12-03T07:40:29.669Z,11.64
2018-12-03T07:41:29.615Z,11.49
2018-12-03T07:42:29.630Z,11.43
2018-12-03T07:43:29.611Z,11.41
2018-12-03T07:44:29.627Z,11.41
2018-12-03T07:45:29.583Z,11.38
2018-12-03T07:46:29.813Z,11.43
2018-12-03T07:47:29.620Z,11.28
2018-12-03T07:48:29.655Z,11.31
2018-12-03T07:49:29.656Z,11.29
2018-12-03T07:50:29.556Z,11.27
2018-12-03T07:51:29.991Z,11.24
2018-12-03T07:52:29.559Z,11.31
2018-12-03T07:53:29.486Z,11.28
2018-12-03T07:54:29.481Z,11.32
2018-12-03T07:55:29.627Z,11.29
2018-12-03T07:56:29.463Z,11.29
2018-12-03T07:57:29.443Z,11.31
2018-12-03T07:58:30.232Z,11.24
2018-12-03T07:59:29.422Z,11.34
2018-12-03T08:00:29.411Z,11.31
2018-12-03T08:01:29.403Z,11.27
2018-12-03T08:02:29.390Z,11.28
2018-12-03T08:03:29.855Z,11.31
2018-12-03T08:04:29.639Z,11.29
2018-12-03T08:05:29.477Z,11.31
2018-12-03T08:06:29.349Z,11.43
2018-12-03T08:07:29.344Z,11.36
2018-12-03T08:08:29.326Z,11.41
2018-12-03T08:09:29.646Z,11.38
2018-12-03T08:10:29.347Z,11.44
2018-12-03T08:11:29.305Z,11.44
2018-12-03T08:12:29.285Z,11.38
2018-12-03T08:13:29.275Z,11.44
2018-12-03T08:14:29.261Z,11.43
2018-12-03T08:15:29.260Z,11.41
2018-12-03T08:16:29.721Z,11.38
2018-12-03T08:17:29.232Z,11.34
2018-12-03T08:18:29.295Z,11.38
2018-12-03T08:19:29.207Z,11.39
2018-12-03T08:20:29.198Z,11.43
2018-12-03T08:21:29.309Z,11.52
2018-12-03T08:22:29.492Z,11.62
2018-12-03T08:23:29.490Z,11.67
2018-12-03T08:24:29.159Z,11.80
2018-12-03T08:25:29.144Z,11.93
2018-12-03T08:26:29.135Z,11.83
2018-12-03T08:27:29.121Z,11.85
2018-12-03T08:28:29.293Z,11.87
2018-12-03T08:29:29.134Z,11.93
2018-12-03T08:30:29.192Z,11.86
2018-12-03T08:31:29.091Z,11.86
2018-12-03T08:32:29.067Z,11.82
2018-12-03T08:33:29.057Z,11.72
2018-12-03T08:34:29.088Z,11.75
2018-12-03T08:35:30.838Z,11.72
2018-12-03T08:36:29.024Z,11.80
2018-12-03T08:37:29.874Z,11.75
2018-12-03T08:38:29.160Z,11.82
2018-12-03T08:39:30.841Z,11.86
2018-12-03T08:40:29.047Z,11.83
2018-12-03T08:41:28.977Z,11.83
2018-12-03T08:42:29.395Z,11.89
2018-12-03T08:43:28.986Z,11.87
2018-12-03T08:44:28.937Z,11.90
2018-12-03T08:45:28.932Z,11.75
2018-12-03T08:46:28.957Z,11.80
2018-12-03T08:47:28.904Z,11.78
2018-12-03T08:48:28.905Z,11.86
2018-12-03T08:49:30.837Z,11.82
2018-12-03T08:50:29.013Z,11.93
2018-12-03T08:51:29.840Z,11.87
2018-12-03T08:52:29.271Z,11.96
2018-12-03T08:53:30.335Z,11.93
2018-12-03T08:54:29.835Z,11.90
2018-12-03T08:55:28.819Z,11.90
2018-12-03T08:56:30.015Z,11.89
2018-12-03T08:57:30.336Z,11.97
2018-12-03T08:58:28.935Z,11.96
2018-12-03T08:59:28.805Z,11.99
2018-12-03T09:00:28.771Z,11.96
2018-12-03T09:01:28.768Z,11.94
2018-12-03T09:02:28.749Z,11.94
2018-12-03T09:03:29.251Z,11.93
2018-12-03T09:04:28.793Z,12.05
2018-12-03T09:05:28.783Z,12.19
2018-12-03T09:06:28.827Z,12.21
2018-12-03T09:07:29.795Z,12.27
2018-12-03T09:08:28.772Z,12.16
2018-12-03T09:09:28.730Z,12.27
2018-12-03T09:10:29.287Z,12.19
2018-12-03T09:11:28.805Z,12.12
2018-12-03T09:12:28.653Z,12.23
2018-12-03T09:13:28.807Z,12.08
2018-12-03T09:14:28.690Z,12.09
2018-12-03T09:15:28.602Z,12.16
2018-12-03T09:16:28.816Z,12.08
2018-12-03T09:17:31.094Z,12.09
2018-12-03T09:18:28.679Z,12.20
2018-12-03T09:19:28.601Z,12.16
2018-12-03T09:20:28.602Z,12.16
2018-12-03T09:21:28.607Z,12.21
2018-12-03T09:22:28.781Z,12.23
2018-12-03T09:23:28.925Z,12.23
2018-12-03T09:24:28.999Z,12.29
2018-12-03T09:25:28.497Z,12.26
2018-12-03T09:26:28.985Z,12.41
2018-12-03T09:27:29.244Z,12.26
2018-12-03T09:28:29.852Z,12.30
2018-12-03T09:29:28.515Z,12.44
2018-12-03T09:31:23.744Z,12.24
2018-12-03T09:32:23.272Z,12.23
2018-12-03T09:33:23.196Z,12.39
2018-12-03T09:34:25.106Z,12.57
2018-12-03T09:35:23.794Z,12.70
2018-12-03T09:36:24.430Z,12.89
2018-12-03T09:37:24.290Z,13.06
2018-12-03T09:38:24.755Z,13.07
2018-12-03T09:39:23.130Z,13.07
2018-12-03T09:40:25.254Z,13.02
2018-12-03T09:41:23.793Z,12.99
2018-12-03T09:42:23.886Z,13.00
2018-12-03T09:43:24.756Z,12.93
2018-12-03T09:44:23.280Z,12.81
2018-12-03T09:45:23.138Z,12.78
2018-12-03T09:46:23.367Z,12.77
2018-12-03T09:47:24.759Z,12.81
2018-12-03T09:48:23.161Z,12.78
2018-12-03T09:49:23.069Z,12.89
2018-12-03T09:50:24.491Z,12.92
2018-12-03T09:51:23.831Z,12.88
2018-12-03T09:52:23.093Z,12.87
2018-12-03T09:53:22.988Z,12.87
2018-12-03T09:54:23.075Z,12.78
2018-12-03T09:55:23.843Z,12.81
2018-12-03T09:56:22.900Z,12.81
2018-12-03T09:57:23.239Z,12.84
2018-12-03T09:58:23.854Z,12.93
2018-12-03T09:59:22.871Z,12.88
2018-12-03T10:00:23.754Z,12.95
2018-12-03T10:01:22.888Z,12.97
2018-12-03T10:02:23.028Z,12.99
2018-12-03T10:03:22.888Z,12.92
2018-12-03T10:04:22.976Z,12.89
2018-12-03T10:05:22.813Z,12.92
2018-12-03T10:06:22.894Z,12.95
2018-12-03T10:07:22.792Z,13.06
2018-12-03T10:08:23.068Z,13.18
2018-12-03T10:09:22.786Z,13.33
2018-12-03T10:10:24.352Z,13.24
2018-12-03T10:11:22.753Z,13.47
2018-12-03T10:12:23.752Z,13.46
2018-12-03T10:13:22.746Z,13.37
2018-12-03T10:14:22.891Z,13.40
2018-12-03T10:15:22.823Z,13.38
2018-12-03T10:16:23.756Z,13.22
2018-12-03T10:17:23.213Z,13.22
2018-12-03T10:18:22.826Z,13.29
2018-12-03T10:19:23.227Z,13.14
2018-12-03T10:20:22.689Z,12.95
2018-12-03T10:21:23.429Z,13.03
2018-12-03T10:22:22.749Z,13.15
2018-12-03T10:23:22.754Z,13.09
2018-12-03T10:24:23.095Z,13.12
2018-12-03T10:25:22.657Z,13.21
2018-12-03T10:26:22.619Z,13.20
2018-12-03T10:27:22.578Z,13.27
2018-12-03T10:28:26.260Z,13.27
2018-12-03T10:29:22.568Z,13.24
2018-12-03T10:30:22.579Z,13.37
2018-12-03T10:31:22.544Z,13.30
2018-12-03T10:32:22.528Z,13.47
2018-12-03T10:33:22.520Z,13.49
2018-12-03T10:34:22.757Z,13.55
2018-12-03T10:35:22.494Z,13.62
2018-12-03T10:36:22.526Z,13.63
2018-12-03T10:37:23.830Z,13.59
2018-12-03T10:38:22.462Z,13.55
2018-12-03T10:39:22.452Z,13.43
2018-12-03T10:40:23.362Z,13.63
2018-12-03T10:41:22.482Z,13.54
2018-12-03T10:42:22.508Z,13.41
2018-12-03T10:43:22.626Z,13.38
2018-12-03T10:44:22.572Z,13.27
2018-12-03T10:45:26.168Z,13.22
2018-12-03T10:46:23.680Z,13.22
2018-12-03T10:47:22.484Z,13.18
2018-12-03T10:48:22.359Z,13.15
2018-12-03T10:49:22.908Z,13.14
2018-12-03T10:50:22.703Z,13.17
2018-12-03T10:51:22.581Z,13.17
2018-12-03T10:52:22.679Z,13.15
2018-12-03T10:53:22.332Z,13.20
2018-12-03T10:54:22.321Z,13.18
2018-12-03T10:55:22.326Z,13.29
2018-12-03T10:56:22.462Z,13.44
2018-12-03T10:57:22.360Z,13.54
2018-12-03T10:58:22.627Z,13.65
2018-12-03T10:59:22.294Z,13.56
2018-12-03T11:00:22.975Z,13.62
2018-12-03T11:01:22.231Z,13.69
2018-12-03T11:02:22.215Z,13.69
2018-12-03T11:03:22.303Z,13.56
2018-12-03T11:04:22.494Z,13.55
2018-12-03T11:05:22.356Z,13.61
2018-12-03T11:06:22.189Z,13.58
2018-12-03T11:07:22.806Z,13.69
2018-12-03T11:08:22.165Z,13.67
2018-12-03T11:09:22.194Z,13.61
2018-12-03T11:10:22.503Z,13.67
2018-12-03T11:11:22.468Z,13.58
2018-12-03T11:12:22.143Z,13.71
2018-12-03T11:13:22.246Z,13.74
2018-12-03T11:14:22.408Z,13.69
2018-12-03T11:15:22.746Z,13.71
2018-12-03T11:16:22.475Z,13.67
2018-12-03T11:17:22.159Z,13.77
2018-12-03T11:18:22.163Z,13.69
2018-12-03T11:19:22.955Z,13.67
2018-12-03T11:20:22.104Z,13.69
2018-12-03T11:21:22.525Z,13.61
2018-12-03T11:22:23.302Z,13.61
2018-12-03T11:23:22.310Z,13.63
2018-12-03T11:24:21.994Z,13.67
2018-12-03T11:25:22.039Z,13.59
2018-12-03T11:26:21.962Z,13.54
2018-12-03T11:27:22.844Z,13.49
2018-12-03T11:28:23.751Z,13.40
2018-12-03T11:29:21.958Z,13.37
2018-12-03T11:30:22.098Z,13.47
2018-12-03T11:31:21.906Z,13.43
2018-12-03T11:32:22.035Z,13.40
2018-12-03T11:33:21.984Z,13.43
2018-12-03T11:34:22.175Z,13.46
2018-12-03T11:35:21.882Z,13.56
2018-12-03T11:36:22.193Z,13.56
2018-12-03T11:37:21.895Z,13.70
2018-12-03T11:38:21.907Z,13.71
2018-12-03T11:39:21.823Z,13.69
2018-12-03T11:40:22.091Z,13.62
2018-12-03T11:41:22.005Z,13.62
2018-12-03T11:42:21.952Z,13.52
2018-12-03T11:43:21.889Z,13.49
2018-12-03T11:44:21.839Z,13.46
2018-12-03T11:45:21.817Z,13.29
2018-12-03T11:46:21.992Z,13.27
2018-12-03T11:47:23.262Z,13.25
2018-12-03T11:48:21.747Z,13.30
2018-12-03T11:49:21.843Z,13.25
2018-12-03T11:50:21.906Z,13.27
2018-12-03T11:51:21.760Z,13.12
2018-12-03T11:52:21.912Z,13.07
2018-12-03T11:53:21.705Z,13.09
2018-12-03T11:54:22.020Z,13.07
2018-12-03T11:55:21.733Z,13.11
2018-12-03T11:56:21.847Z,13.04
2018-12-03T11:57:21.825Z,13.04
2018-12-03T11:58:22.130Z,13.00
2018-12-03T11:59:22.113Z,12.95
2018-12-03T12:00:21.672Z,13.09
2018-12-03T12:01:21.672Z,12.99
2018-12-03T12:02:21.600Z,13.00
2018-12-03T12:03:21.629Z,13.00
2018-12-03T12:04:21.756Z,13.00
2018-12-03T12:05:21.635Z,12.97
2018-12-03T12:06:22.150Z,12.96
2018-12-03T12:07:21.572Z,12.96
2018-12-03T12:08:21.529Z,13.02
2018-12-03T12:09:21.543Z,13.17
2018-12-03T12:10:21.744Z,13.17
2018-12-03T12:11:21.545Z,13.09
2018-12-03T12:12:21.584Z,13.22
2018-12-03T12:13:21.567Z,13.30
2018-12-03T12:14:21.580Z,13.27
2018-12-03T12:15:23.984Z,13.41
2018-12-03T12:16:40.285Z,13.14
2018-12-03T12:17:21.439Z,13.12
2018-12-03T12:18:26.937Z,13.15
2018-12-03T12:19:23.616Z,13.18
2018-12-03T12:20:28.982Z,13.15
2018-12-03T12:22:42.549Z,13.25
2018-12-03T12:23:41.557Z,13.27
2018-12-03T12:24:41.503Z,13.41
2018-12-03T12:25:41.597Z,13.32
2018-12-03T12:26:41.380Z,13.27
2018-12-03T12:27:41.499Z,13.12
2018-12-03T12:28:41.628Z,13.17
2018-12-03T12:31:21.979Z,13.22
2018-12-03T12:32:21.590Z,13.15
2018-12-03T12:33:20.362Z,13.11
2018-12-03T12:36:43.263Z,12.92
2018-12-03T12:37:35.095Z,12.93
2018-12-03T12:38:34.804Z,12.87
2018-12-03T12:39:34.807Z,12.82
2018-12-03T12:40:34.876Z,12.92
2018-12-03T12:41:34.807Z,12.99
2018-12-03T12:42:35.707Z,12.93
2018-12-03T12:43:34.918Z,12.95
2018-12-03T12:44:34.737Z,12.79
2018-12-03T12:45:34.830Z,12.82
2018-12-03T12:46:34.765Z,12.82
2018-12-03T12:47:34.858Z,12.87
2018-12-03T12:48:34.922Z,12.79
2018-12-03T12:49:35.029Z,12.95
2018-12-03T12:50:34.666Z,12.97
2018-12-03T12:51:34.769Z,12.97
2018-12-03T12:52:34.689Z,12.97
2018-12-03T12:53:34.660Z,13.02
2018-12-03T12:54:35.121Z,13.03
2018-12-03T12:55:34.652Z,13.07
2018-12-03T12:56:35.053Z,13.04
2018-12-03T12:57:34.688Z,13.04
2018-12-03T12:58:34.717Z,13.03
2018-12-03T12:59:34.735Z,13.04